Terminal Aerodrome Forecast
Issued by NWS

Current Version | Previous Version | Graphics & Text | Print | Product List | Glossary On
Versions: 1 2 3 4 5 6 7 8 9 10 11 12 13 14 15 16 17 18 19 20 21 22 23
997
FTUS41 KILN 192320
TAFLCK
TAF
KLCK 192320Z 2000/2024 VRB03KT P6SM FEW060
      TEMPO 2009/2012 4SM BR
     FM201600 23008KT P6SM SCT040=

USA.gov is the U.S. government's official web portal to all federal, state and local government web resources and services.